Nassau, Bahamas

10:12 AM EDT on June 02, 2015 (GMT -0400)
Nassau International | | Change Station
CLOSE
Current Station
Airport
Location: Nassau,
Elevation: 23 ft
Nearby Weather Stations

Elev 23 ft 25.04 °N, 77.47 °W | Updated 12 minutes ago

Mostly Cloudy
Mostly Cloudy
84 °F
Feels Like 88 °F
N
7
Wind Variable Wind from East

Today
High -- | Low -- °F
--% Chance of Precip.
Yesterday
High -- | Low -- °F
Precip. -- in
6:19 AM 7:56 PM
Full, 100% visible
Pressure 30.03 in
Visibility 6.2 miles
Clouds Few 1800 ft
Scattered Clouds 11000 ft
Mostly Cloudy 22000 ft
Heat Index 88 °F
Dew Point 70 °F
Humidity 62%
Rainfall 0.00 in
Snow Depth Not available.
UV 5 out of 12
Pollen Not available.
Air Quality Not available.
Flu Activity Not available.
METAR MYNN 021400Z 09006KT 9999 FEW018 SCT110 BKN220 29/21 A3003

More Conditions Fewer Conditions

Pressure 30.03 in
Visibility 6.2 miles
Clouds Few 1800 ft
Scattered Clouds 11000 ft
Mostly Cloudy 22000 ft
Heat Index 88 °F
Dew Point 70 °F
Humidity 62%
Rainfall 0.00 in
Snow Depth Not available.
UV 5 out of 12
Pollen Not available.
Air Quality Not available.
Flu Activity Not available.
METAR MYNN 021400Z 09006KT 9999 FEW018 SCT110 BKN220 29/21 A3003

More Conditions Fewer Conditions

10-Day Weather Forecast

Almanac

Astronomy

Jun. 02, 2015 Rise Set
Actual Time
Civil Twilight
Nautical Twilight
Astronomical Twilight
Moon
Length of Visible Light
Length of Day
Tomorrow will be .
, % of the Moon is Illuminated

Today's Extremes

Country Highs Country Lows

Community

WunderPhotos

Upload Photos

1,825,917 photos uploaded!

WunderBlogs® & News

Nearby

Air Quality

  Air Quality AQ Index Pollutant
Not available.

Snow Depth

Station Depth Elevation

Earthquake Activity

City Distance Mag. Time & Date
Minimum magnitude displayed is 2.5.

Coastal Water Temperatures

Place Temperature

Stations

Nearby Weather Stations

Station Location Temp. Windchill Dew Point Humidity Wind Precip. Elev Updated Type